Tuesday, November 25, 2014
00:31 UTC
  |  Log In   |  Register Free
Airport Search:

Enterprise Municipal Airport
(KEDN)

Enterprise Municipal Airport Diagram
No Airport Diagram Available

FAA data valid effective November 13, 2014 - January 08, 2015 (unless otherwise noted).

 
 
 
 
 
 
 
 
 
 
 
 
 
 

Current Aviation Weather for Enterprise Municipal Airport (KEDN)

The most recent METAR observation for KEDN was updated at: 0025
METAR Summary (Translated METAR)
KEDN
242355Z AUTO 19004KT 10SM SCT055 20/16 A2989 RMK AO2
KSXS
242256Z AUTO 20003KT 10SM FEW095 SCT110 BKN170 22/15 A2988 RMK AO2 SLP118 T02240146
(4.6 nm NE from KEDN)
KLOR
242353Z AUTO 00000KT 10SM FEW060 21/17 A2988 RMK AO2 SLP116 T02060172 10272 20194 53021 TSNO $
(8.3 nm NE from KEDN)
TAF
No TAF information found within 50 nm of KLOR
  Airport Weather Conditions for KEDN

 Current Weather at EDN
68° F
Partly Cloudy
South winds at 4.6 mph
EDN NOAA Radar

Pressure: 29.89 in
Humidity: 78%
Wind: South at 4.6 MPH (4 KT)
Dew Point: 60.8°F
Visibility: 10.00 mi


Airport Weather Forecast for KEDN

Translated METAR and TAF for KLOR
Translated METAR for KLOR (0026 UTC 25 November 2014)
found at http://aviationweather.gov/adds/metars/
 
METAR text: KLOR 242353Z AUTO 00000KT 10SM FEW060 21/17 A2988 RMK AO2 SLP116 T02060172 10272 20194 53021 TSNO $
Conditions at: KLOR (LOWE AHP/FT. RUC, AL, US) observed 2353 UTC 24 November 2014
Temperature: 20.6°C (69°F)
Dewpoint: 17.2°C (63°F) [RH = 81%]
Pressure (altimeter): 29.88 inches Hg (1011.9 mb)
[Sea-level pressure: 1011.6 mb]
Winds: calm
Visibility: 10 or more miles (16+ km)
Ceiling: at least 12,000 feet AGL
Clouds: few clouds at 6000 feet AGL
Weather:
SOME DATA ABOVE MAY BE INACCURATE!!!
"$" is an indication the sensor requires maintenance
Translated TAF for KLOR

There is no translated TAF available for this airport

Find All Airport Services Find A Hotel Find A Rental Car Find A Golf Course Find A Restaurant $100 Hamburger



FBO's on the Field
FBO Company Facility Photos Services Transportation Aviation Fuel Prices: Prices include tax
Catering Weather Repair Courtesy Rental Type 100LL JetA JetA+ MOGAS 8087
 
Enterprise Municipal Airport

This FBO has not yet been rated
FS:Epic
Last Updated: Nov-04
Login to update fuel prices
SS:
Contact Enterprise Municipal AirportMore FBO Information
 
Add another FBO Facility Photos Catering Weather Repair Courtesy Rental Type 100LL JetA JetA+ MOGAS 8087
Services Transportation Aviation Fuel Prices: Prices include tax


model-print
model-print
model-print
model-print